createdAt,value
2022-12-31T00:00:42.391Z,6.21
2022-12-31T00:05:40.296Z,6.32
2022-12-31T00:10:41.777Z,6.22
2022-12-31T00:15:39.954Z,6.14
2022-12-31T00:20:39.707Z,6.04
2022-12-31T00:25:40.107Z,5.92
2022-12-31T00:30:37.961Z,5.82
2022-12-31T00:35:36.512Z,5.72
2022-12-31T00:40:34.320Z,5.57
2022-12-31T00:45:33.594Z,5.65
2022-12-31T00:50:31.408Z,5.64
2022-12-31T00:55:29.261Z,5.67
2022-12-31T01:00:27.217Z,5.74
2022-12-31T01:05:26.455Z,5.67
2022-12-31T01:10:38.159Z,5.65
2022-12-31T01:15:36.305Z,5.62
2022-12-31T01:20:37.913Z,5.56
2022-12-31T01:25:36.148Z,5.50
2022-12-31T01:30:34.260Z,5.42
2022-12-31T01:35:34.931Z,5.18
2022-12-31T01:40:37.366Z,5.11
2022-12-31T01:45:35.204Z,4.89
2022-12-31T01:50:34.363Z,4.92
2022-12-31T01:55:34.507Z,4.80
2022-12-31T02:00:34.263Z,4.61
2022-12-31T02:05:34.542Z,4.43
2022-12-31T02:10:32.371Z,4.46
2022-12-31T02:15:35.060Z,4.37
2022-12-31T02:20:59.970Z,4.40
2022-12-31T02:26:19.291Z,4.36
2022-12-31T02:31:19.950Z,4.35
2022-12-31T02:36:19.651Z,4.35
2022-12-31T02:41:32.860Z,4.35
2022-12-31T02:46:37.433Z,4.26
2022-12-31T02:51:39.346Z,4.30
2022-12-31T02:56:40.068Z,4.37
2022-12-31T03:01:59.425Z,4.38
2022-12-31T03:06:57.541Z,4.39
2022-12-31T03:12:12.371Z,4.29
2022-12-31T03:17:11.573Z,4.11
2022-12-31T03:22:29.370Z,4.18
2022-12-31T03:27:27.231Z,4.22
2022-12-31T03:32:26.499Z,4.14
2022-12-31T03:37:24.318Z,4.23
2022-12-31T03:42:22.119Z,4.23
2022-12-31T03:47:19.937Z,4.30
2022-12-31T03:52:19.181Z,4.41
2022-12-31T03:57:17.073Z,4.49
2022-12-31T04:02:15.095Z,4.59
2022-12-31T04:07:12.995Z,4.61
2022-12-31T04:12:12.227Z,4.68
2022-12-31T04:17:10.096Z,4.66
2022-12-31T04:22:07.957Z,4.71
2022-12-31T04:27:08.022Z,4.58
2022-12-31T04:32:07.890Z,4.63
2022-12-31T04:37:05.689Z,4.63
2022-12-31T04:42:03.516Z,4.60
2022-12-31T04:47:01.351Z,4.63
2022-12-31T04:52:00.548Z,4.63
2022-12-31T04:56:58.346Z,4.53
2022-12-31T05:01:56.510Z,4.56
2022-12-31T05:06:54.524Z,4.53
2022-12-31T05:11:53.712Z,4.50
2022-12-31T05:16:52.151Z,4.41
2022-12-31T05:22:10.034Z,4.45
2022-12-31T05:27:09.232Z,4.39
2022-12-31T05:32:07.100Z,4.35
2022-12-31T05:37:04.954Z,4.33
2022-12-31T05:42:02.799Z,4.27
2022-12-31T05:47:02.014Z,4.27
2022-12-31T05:51:59.887Z,4.22
2022-12-31T05:56:57.722Z,4.20
2022-12-31T06:01:55.574Z,4.25
2022-12-31T06:06:54.738Z,4.22
2022-12-31T06:11:52.558Z,4.28
2022-12-31T06:16:50.457Z,4.31
2022-12-31T06:21:48.430Z,4.46
2022-12-31T06:26:47.682Z,5.52
2022-12-31T06:31:45.608Z,6.55
2022-12-31T06:36:43.458Z,7.42
2022-12-31T06:41:41.312Z,8.03
2022-12-31T06:46:40.533Z,8.58
2022-12-31T06:51:38.414Z,9.29
2022-12-31T06:56:36.649Z,10.05
2022-12-31T07:01:39.511Z,10.78
2022-12-31T07:06:44.143Z,11.21
2022-12-31T07:11:48.234Z,11.79
2022-12-31T07:16:51.409Z,11.90
2022-12-31T07:21:50.869Z,12.33
2022-12-31T07:26:57.753Z,12.87
2022-12-31T07:32:01.489Z,12.74
2022-12-31T07:37:04.856Z,13.48
2022-12-31T07:42:06.248Z,13.91
2022-12-31T07:47:05.756Z,14.56
2022-12-31T07:52:05.989Z,14.74
2022-12-31T07:57:05.918Z,15.31
2022-12-31T08:02:08.409Z,15.82
2022-12-31T08:07:15.226Z,16.27
2022-12-31T08:12:14.221Z,16.44
2022-12-31T08:17:13.431Z,16.67
2022-12-31T08:22:23.698Z,17.28
2022-12-31T08:27:25.211Z,17.22
2022-12-31T08:32:25.082Z,17.55
2022-12-31T08:37:30.320Z,17.72
2022-12-31T08:42:32.517Z,17.91
2022-12-31T08:47:38.545Z,18.12
2022-12-31T08:52:38.424Z,18.45
2022-12-31T08:57:41.071Z,18.97
2022-12-31T09:02:53.700Z,19.31
2022-12-31T09:07:58.455Z,19.13
2022-12-31T09:13:04.468Z,19.41
2022-12-31T09:18:02.703Z,19.56
2022-12-31T09:23:02.598Z,18.45
2022-12-31T09:28:09.747Z,16.40
2022-12-31T09:33:10.175Z,16.86
2022-12-31T09:38:15.122Z,16.78
2022-12-31T09:43:22.197Z,18.15
2022-12-31T09:48:35.005Z,18.67
2022-12-31T09:53:56.583Z,16.97
2022-12-31T09:59:01.397Z,17.34
2022-12-31T10:04:16.795Z,17.90
2022-12-31T10:09:24.179Z,17.54
2022-12-31T10:14:31.704Z,18.29
2022-12-31T10:19:37.128Z,17.81
2022-12-31T10:24:55.646Z,16.89
2022-12-31T10:29:59.115Z,19.07
2022-12-31T10:35:01.161Z,18.62
2022-12-31T10:40:13.701Z,19.66
2022-12-31T10:45:26.738Z,19.39
2022-12-31T10:50:42.161Z,20.14
2022-12-31T10:55:57.699Z,20.40
2022-12-31T11:00:59.591Z,20.31
2022-12-31T11:06:23.814Z,20.18
2022-12-31T11:11:32.739Z,20.85
2022-12-31T11:16:46.074Z,21.12
2022-12-31T11:22:04.209Z,21.35
2022-12-31T11:27:15.184Z,21.39
2022-12-31T11:32:18.969Z,21.71
2022-12-31T11:37:24.975Z,21.80
2022-12-31T11:42:28.171Z,20.17
2022-12-31T11:48:20.201Z,20.23
2022-12-31T11:53:10.939Z,20.67
2022-12-31T11:58:13.495Z,20.21
2022-12-31T12:03:13.926Z,21.10
2022-12-31T12:08:12.771Z,21.73
2022-12-31T12:13:20.718Z,21.52
2022-12-31T12:18:26.661Z,21.86
2022-12-31T12:23:26.051Z,21.34
2022-12-31T12:28:26.911Z,21.74
2022-12-31T12:33:24.841Z,21.70
2022-12-31T12:38:23.832Z,20.37
2022-12-31T12:43:23.047Z,19.93
2022-12-31T12:48:27.079Z,19.73
2022-12-31T12:53:32.252Z,19.74
2022-12-31T12:58:39.442Z,20.24
2022-12-31T13:04:32.522Z,20.24
2022-12-31T13:09:23.254Z,19.55
2022-12-31T13:14:24.727Z,19.16
2022-12-31T13:19:30.395Z,19.35
2022-12-31T13:24:39.175Z,19.05
2022-12-31T13:29:38.626Z,18.87
2022-12-31T13:34:40.707Z,18.18
2022-12-31T13:39:42.057Z,17.41
2022-12-31T13:44:43.028Z,17.20
2022-12-31T13:49:44.884Z,17.05
2022-12-31T13:54:46.636Z,16.33
2022-12-31T13:59:56.029Z,15.49
2022-12-31T14:04:56.518Z,15.14
2022-12-31T14:09:55.736Z,14.90
2022-12-31T14:14:59.288Z,14.78
2022-12-31T14:20:02.872Z,14.66
2022-12-31T14:25:05.776Z,14.61
2022-12-31T14:30:05.954Z,14.42
2022-12-31T14:35:08.831Z,14.22
2022-12-31T14:40:16.250Z,14.05
2022-12-31T14:45:23.073Z,13.85
2022-12-31T14:50:24.210Z,13.70
2022-12-31T14:55:28.386Z,13.54
2022-12-31T15:00:28.907Z,13.42
2022-12-31T15:05:27.648Z,13.33
2022-12-31T15:10:35.421Z,13.10
2022-12-31T15:15:44.015Z,12.97
2022-12-31T15:21:05.494Z,12.91
2022-12-31T15:26:05.575Z,12.77
2022-12-31T15:31:06.603Z,12.56
2022-12-31T15:36:14.967Z,12.43
2022-12-31T15:41:17.419Z,12.35
2022-12-31T15:46:20.203Z,12.14
2022-12-31T15:51:19.738Z,12.05
2022-12-31T15:56:19.899Z,11.84
2022-12-31T16:01:22.212Z,11.60
2022-12-31T16:06:20.239Z,11.38
2022-12-31T16:11:18.654Z,11.07
2022-12-31T16:16:22.331Z,10.80
2022-12-31T16:21:27.356Z,10.88
2022-12-31T16:26:26.646Z,10.81
2022-12-31T16:31:25.976Z,10.69
2022-12-31T16:36:24.655Z,10.56
2022-12-31T16:41:25.632Z,10.48
2022-12-31T16:46:27.242Z,10.27
2022-12-31T16:51:27.350Z,10.03
2022-12-31T16:56:29.318Z,9.96
2022-12-31T17:01:29.970Z,9.91
2022-12-31T17:06:29.380Z,9.75
2022-12-31T17:11:29.727Z,9.63
2022-12-31T17:16:29.085Z,9.53
2022-12-31T17:21:28.860Z,9.54
2022-12-31T17:26:27.985Z,9.36
2022-12-31T17:31:28.055Z,9.26
2022-12-31T17:36:31.263Z,9.22
2022-12-31T17:41:29.534Z,9.19
2022-12-31T17:46:27.775Z,9.12
2022-12-31T17:51:27.054Z,9.13
2022-12-31T17:56:24.922Z,8.93
2022-12-31T18:01:24.407Z,8.81
2022-12-31T18:06:22.364Z,8.75
2022-12-31T18:11:23.319Z,8.67
2022-12-31T18:16:21.177Z,8.61
2022-12-31T18:21:23.368Z,8.55
2022-12-31T18:26:23.702Z,8.50
2022-12-31T18:31:23.229Z,8.48
2022-12-31T18:36:21.740Z,8.22
2022-12-31T18:41:21.161Z,8.27
2022-12-31T18:46:22.541Z,8.07
2022-12-31T18:51:23.964Z,8.11
2022-12-31T18:56:25.269Z,8.25
2022-12-31T19:01:29.375Z,8.30
2022-12-31T19:06:27.796Z,8.24
2022-12-31T19:11:25.740Z,8.27
2022-12-31T19:16:25.209Z,8.31
2022-12-31T19:21:24.792Z,8.28
2022-12-31T19:26:23.337Z,8.34
2022-12-31T19:31:21.193Z,8.29
2022-12-31T19:36:20.034Z,8.44
2022-12-31T19:41:20.200Z,8.56
2022-12-31T19:46:18.845Z,8.61
2022-12-31T19:51:18.527Z,8.56
2022-12-31T19:56:17.885Z,8.51
2022-12-31T20:01:22.684Z,8.49
2022-12-31T20:06:20.675Z,8.59
2022-12-31T20:11:19.654Z,8.47
2022-12-31T20:16:19.929Z,8.53
2022-12-31T20:21:19.045Z,8.60
2022-12-31T20:26:17.222Z,8.53
2022-12-31T20:31:16.233Z,8.58
2022-12-31T20:36:16.217Z,8.59
2022-12-31T20:41:15.301Z,8.60
2022-12-31T20:46:15.721Z,8.61
2022-12-31T20:51:16.063Z,8.57
2022-12-31T20:56:13.929Z,8.56
2022-12-31T21:01:12.179Z,8.60
2022-12-31T21:06:10.662Z,8.48
2022-12-31T21:11:24.241Z,8.54
2022-12-31T21:16:22.434Z,8.37
2022-12-31T21:21:20.263Z,8.32
2022-12-31T21:26:19.841Z,8.29
2022-12-31T21:31:17.696Z,8.29
2022-12-31T21:36:16.415Z,8.31
2022-12-31T21:41:35.098Z,8.35
2022-12-31T21:46:34.488Z,8.45
2022-12-31T21:51:32.438Z,8.40
2022-12-31T21:56:31.367Z,8.42
2022-12-31T22:01:50.887Z,8.35
2022-12-31T22:06:50.257Z,8.29
2022-12-31T22:11:48.468Z,8.21
2022-12-31T22:16:49.325Z,8.12
2022-12-31T22:21:47.228Z,8.02
2022-12-31T22:26:47.004Z,7.93
2022-12-31T22:31:49.517Z,7.89
2022-12-31T22:36:47.406Z,7.89
2022-12-31T22:41:46.755Z,7.82
2022-12-31T22:46:45.861Z,7.71
2022-12-31T22:51:57.536Z,7.88
2022-12-31T22:56:59.015Z,7.77
2022-12-31T23:01:56.866Z,7.70
2022-12-31T23:06:54.825Z,7.68
2022-12-31T23:11:52.718Z,7.68
2022-12-31T23:17:30.126Z,7.66
2022-12-31T23:22:44.782Z,7.63
2022-12-31T23:27:42.598Z,7.50
2022-12-31T23:32:41.805Z,7.41
2022-12-31T23:37:39.604Z,7.46
2022-12-31T23:42:41.178Z,7.38
2022-12-31T23:47:39.138Z,7.41
2022-12-31T23:52:38.581Z,7.46
2022-12-31T23:57:36.588Z,7.44
